Time;durP1;ratioP1;P1;durP2;ratioP2;P2;SDS_P1;SDS_P2;PMS_P1;PMS_P2;Temp;Humidity;BMP_temperature;BMP_pressure;BME280_temperature;BME280_humidity;BME280_pressure;Samples;Min_cycle;Max_cycle;Signal;HPM_P1;HPM_P2
2022/08/15 00:01:04;;;;;;;6.82;4.47;;;21.20;68.90;;;;;;4879811;29;20452;-79
2022/08/15 00:03:33;;;;;;;4.20;3.70;;;21.30;67.80;;;;;;4879830;29;20036;-79
2022/08/15 00:06:12;;;;;;;6.20;3.90;;;21.40;67.60;;;;;;4879717;29;20044;-79
2022/08/15 00:08:42;;;;;;;8.57;3.42;;;21.50;68.00;;;;;;4878288;29;20033;-79
2022/08/15 00:11:12;;;;;;;5.40;3.75;;;21.60;67.10;;;;;;4879771;29;20029;-79
2022/08/15 00:13:39;;;;;;;4.75;3.63;;;21.60;67.00;;;;;;4879815;29;20033;-79
2022/08/15 00:16:05;;;;;;;5.07;3.58;;;21.70;67.00;;;;;;4879533;29;20037;-79
2022/08/15 00:18:31;;;;;;;4.75;3.55;;;21.70;66.80;;;;;;4879524;29;20499;-79
2022/08/15 00:20:58;;;;;;;3.53;3.20;;;21.80;66.20;;;;;;4879589;29;20044;-79
2022/08/15 00:23:26;;;;;;;6.35;3.58;;;21.70;66.80;;;;;;4879494;29;20068;-80
2022/08/15 00:25:56;;;;;;;7.30;3.60;;;21.60;66.90;;;;;;4879572;29;20104;-79
2022/08/15 00:28:22;;;;;;;4.35;3.95;;;21.60;67.00;;;;;;4879559;29;20029;-79
2022/08/15 00:30:48;;;;;;;7.03;3.83;;;21.60;67.90;;;;;;4879445;29;20032;-80
2022/08/15 00:33:15;;;;;;;4.32;3.20;;;21.40;68.40;;;;;;4878193;29;20025;-80
2022/08/15 00:35:45;;;;;;;3.78;3.10;;;21.40;68.30;;;;;;4879009;29;20060;-80
2022/08/15 00:38:20;;;;;;;4.53;3.20;;;21.30;67.70;;;;;;4879421;29;20033;-79
2022/08/15 00:43:36;;;;;;;4.85;3.05;;;21.30;67.30;;;;;;4879294;29;20100;-79
2022/08/15 00:46:05;;;;;;;7.30;3.00;;;21.30;66.90;;;;;;4879281;29;20036;-79
2022/08/15 00:48:42;;;;;;;5.45;2.75;;;21.40;66.80;;;;;;4879354;29;20025;-79
2022/08/15 00:51:26;;;;;;;4.95;3.10;;;21.40;65.90;;;;;;4879232;29;20080;-78
2022/08/15 00:53:56;;;;;;;4.45;2.90;;;21.40;65.60;;;;;;4879313;29;20025;-79
2022/08/15 00:56:26;;;;;;;4.72;2.95;;;21.60;65.00;;;;;;4878008;29;20097;-79
2022/08/15 00:58:52;;;;;;;5.72;3.38;;;21.60;65.00;;;;;;4879434;29;20033;-79
2022/08/15 01:01:17;;;;;;;4.20;2.95;;;21.70;64.60;;;;;;4879515;29;20029;-79
2022/08/15 01:03:47;;;;;;;6.43;2.97;;;21.80;64.30;;;;;;4882291;29;20244;-79
2022/08/15 01:06:14;;;;;;;3.55;2.95;;;21.80;64.60;;;;;;4883350;29;20480;-78
2022/08/15 01:08:43;;;;;;;4.60;3.05;;;21.70;65.10;;;;;;4882986;29;20033;-78
2022/08/15 01:11:17;;;;;;;5.63;3.20;;;21.70;65.00;;;;;;4882876;29;20483;-79
2022/08/15 01:13:44;;;;;;;5.13;3.00;;;21.70;65.10;;;;;;4881575;29;20119;-78
2022/08/15 01:16:10;;;;;;;4.88;3.20;;;21.80;64.70;;;;;;4882644;29;20037;-78
2022/08/15 01:18:37;;;;;;;5.45;3.05;;;21.90;64.30;;;;;;4882678;29;20100;-78
2022/08/15 01:21:12;;;;;;;4.68;3.08;;;21.90;64.10;;;;;;4883185;29;20025;-78
2022/08/15 01:23:58;;;;;;;3.28;2.78;;;21.90;64.20;;;;;;4883305;29;20029;-79
2022/08/15 01:26:25;;;;;;;;;;;21.80;64.50;;;;;;4883514;29;20061;-79
2022/08/15 01:28:53;;;;;;;4.90;2.80;;;21.70;65.80;;;;;;4885622;29;19908;-78
2022/08/15 01:31:21;;;;;;;3.85;2.63;;;21.60;65.70;;;;;;4883515;29;20396;-79
2022/08/15 01:33:50;;;;;;;5.40;2.92;;;21.50;66.00;;;;;;4884150;29;20494;-78
2022/08/15 01:36:17;;;;;;;5.75;3.08;;;21.20;67.50;;;;;;4882596;29;20575;-76
2022/08/15 01:38:48;;;;;;;7.60;3.47;;;20.80;68.60;;;;;;4881210;29;20040;-76
2022/08/15 01:41:13;;;;;;;7.38;2.88;;;20.40;70.50;;;;;;4882356;29;20052;-77
2022/08/15 01:43:46;;;;;;;5.63;2.75;;;20.20;71.50;;;;;;4882350;29;20450;-76
2022/08/15 01:46:13;;;;;;;4.00;2.47;;;20.20;71.80;;;;;;4882770;29;20061;-77
2022/08/15 01:48:49;;;;;;;3.70;2.50;;;20.00;71.90;;;;;;4882171;29;20392;-77
2022/08/15 01:51:16;;;;;;;7.00;2.95;;;20.00;72.30;;;;;;4882326;29;20032;-76
2022/08/15 01:53:44;;;;;;;5.05;2.50;;;20.20;72.00;;;;;;4882219;29;20032;-77
2022/08/15 01:56:31;;;;;;;4.82;2.55;;;20.20;71.30;;;;;;4880612;29;20029;-79
2022/08/15 01:59:03;;;;;;;9.20;3.00;;;20.30;71.30;;;;;;4882016;29;20491;-79
2022/08/15 02:01:52;;;;;;;5.07;3.03;;;20.50;71.10;;;;;;4882095;29;20088;-80
2022/08/15 02:04:22;;;;;;;2.85;2.60;;;20.80;70.50;;;;;;4882006;29;20033;-79
2022/08/15 02:06:48;;;;;;;10.32;3.38;;;20.90;70.30;;;;;;4880693;29;20119;-79
2022/08/15 02:09:17;;;;;;;6.55;3.30;;;21.00;69.80;;;;;;4881911;29;20065;-79
2022/08/15 02:11:44;;;;;;;6.45;3.72;;;21.00;70.80;;;;;;4881850;29;20040;-78
2022/08/15 02:14:11;;;;;;;5.95;2.80;;;20.80;71.20;;;;;;4881623;29;20036;-79
2022/08/15 02:16:38;;;;;;;5.05;2.90;;;20.80;71.40;;;;;;4881587;29;20538;-79
2022/08/15 02:19:07;;;;;;;4.43;3.15;;;20.90;71.40;;;;;;4881589;29;20037;-79
2022/08/15 02:21:33;;;;;;;6.45;3.13;;;20.80;70.90;;;;;;4881573;29;20024;-79
2022/08/15 02:23:59;;;;;;;4.18;2.50;;;21.00;70.80;;;;;;4881506;29;20193;-79
2022/08/15 02:26:25;;;;;;;5.15;2.75;;;21.00;70.20;;;;;;4881549;29;20391;-79
2022/08/15 02:28:51;;;;;;;5.07;2.80;;;21.10;69.80;;;;;;4881506;29;20112;-79
2022/08/15 02:31:21;;;;;;;3.42;2.70;;;21.00;69.80;;;;;;4881509;29;20029;-79
2022/08/15 02:33:51;;;;;;;6.47;2.85;;;21.00;70.00;;;;;;4881465;29;20041;-78
2022/08/15 02:36:18;;;;;;;4.20;2.47;;;20.90;70.00;;;;;;4881098;29;20092;-78
2022/08/15 02:38:45;;;;;;;5.15;2.63;;;21.00;69.50;;;;;;4881274;29;20025;-79
2022/08/15 02:41:13;;;;;;;4.95;2.72;;;21.00;68.20;;;;;;4880044;29;20117;-80
2022/08/15 02:43:43;;;;;;;4.30;2.05;;;20.90;68.10;;;;;;4881483;29;20021;-84
2022/08/15 02:46:09;;;;;;;3.63;1.50;;;20.30;63.80;;;;;;4882614;29;20032;-84
2022/08/15 02:48:37;;;;;;;3.47;1.38;;;20.10;63.40;;;;;;4881728;29;20043;-74
2022/08/15 02:51:07;;;;;;;2.40;1.65;;;20.10;61.80;;;;;;4881047;29;20025;-74
2022/08/15 02:53:32;;;;;;;2.38;1.60;;;20.00;62.40;;;;;;4881264;29;20085;-76
2022/08/15 02:55:59;;;;;;;3.20;1.80;;;20.00;62.20;;;;;;4879730;29;20448;-74
2022/08/15 02:58:24;;;;;;;2.63;1.90;;;19.90;62.70;;;;;;4881068;29;20084;-74
2022/08/15 03:00:50;;;;;;;3.63;1.80;;;19.80;63.60;;;;;;4880921;29;20029;-75
2022/08/15 03:03:16;;;;;;;3.95;1.70;;;19.70;64.50;;;;;;4880960;29;20025;-74
2022/08/15 03:05:45;;;;;;;3.08;1.60;;;19.70;64.10;;;;;;4880757;29;20044;-74
2022/08/15 03:08:12;;;;;;;4.80;1.67;;;19.70;64.60;;;;;;4880830;29;20039;-74
2022/08/15 03:10:40;;;;;;;2.70;1.60;;;19.80;63.60;;;;;;4880932;29;20029;-74
2022/08/15 03:13:14;;;;;;;3.30;1.70;;;19.80;64.10;;;;;;4880879;29;20177;-74
2022/08/15 03:15:50;;;;;;;2.22;1.60;;;19.80;63.80;;;;;;4880678;29;20021;-74
2022/08/15 03:18:15;;;;;;;;;;;19.90;63.30;;;;;;4880880;29;20519;-74
2022/08/15 03:20:44;;;;;;;2.20;1.73;;;20.00;63.50;;;;;;4880579;29;19919;-74
2022/08/15 03:23:11;;;;;;;4.60;1.90;;;20.00;62.80;;;;;;4880595;29;20085;-74
2022/08/15 03:25:42;;;;;;;4.22;1.85;;;19.90;64.00;;;;;;4879912;29;20117;-74
2022/08/15 03:28:08;;;;;;;3.90;1.90;;;19.80;64.70;;;;;;4880550;29;20078;-74
2022/08/15 03:30:34;;;;;;;2.55;1.70;;;19.80;65.20;;;;;;4880277;29;20507;-74
2022/08/15 03:33:00;;;;;;;2.28;1.90;;;19.70;65.30;;;;;;4880018;29;20041;-74
2022/08/15 03:35:30;;;;;;;2.00;1.55;;;19.70;65.30;;;;;;4880113;29;20048;-74
2022/08/15 03:37:59;;;;;;;2.22;1.52;;;19.80;65.40;;;;;;4880350;29;20127;-74
2022/08/15 03:40:26;;;;;;;4.03;1.80;;;19.80;65.10;;;;;;4880221;29;20028;-74
2022/08/15 03:42:54;;;;;;;3.78;1.58;;;19.80;65.20;;;;;;4880197;29;20041;-74
2022/08/15 03:45:20;;;;;;;3.67;1.85;;;19.90;64.70;;;;;;4879679;29;20037;-74
2022/08/15 03:47:46;;;;;;;5.20;2.28;;;20.00;64.50;;;;;;4880090;29;20029;-74
2022/08/15 03:50:12;;;;;;;5.75;1.98;;;19.90;64.80;;;;;;4879945;29;20059;-74
2022/08/15 03:52:56;;;;;;;3.70;1.75;;;19.90;64.50;;;;;;4880035;29;20026;-74
2022/08/15 03:55:24;;;;;;;3.15;2.38;;;19.80;64.70;;;;;;4879815;29;20089;-73
2022/08/15 03:57:51;;;;;;;3.75;1.95;;;19.90;64.60;;;;;;4879819;29;20002;-73
2022/08/15 04:00:20;;;;;;;3.72;2.25;;;19.90;64.30;;;;;;4879824;29;20021;-74
2022/08/15 04:02:46;;;;;;;3.30;1.88;;;19.90;64.80;;;;;;4879603;29;20045;-74
2022/08/15 04:05:12;;;;;;;3.95;1.85;;;19.80;64.40;;;;;;4879664;29;20161;-76
2022/08/15 04:07:38;;;;;;;3.60;1.92;;;19.70;64.70;;;;;;4879791;29;20036;-75
2022/08/15 04:10:06;;;;;;;8.15;2.45;;;19.70;64.30;;;;;;4879716;29;20475;-74
2022/08/15 04:12:39;;;;;;;5.53;2.13;;;19.70;64.80;;;;;;4879623;29;20033;-74
2022/08/15 04:15:10;;;;;;;8.43;2.00;;;19.60;65.40;;;;;;4879620;29;20411;-73
2022/08/15 04:17:36;;;;;;;6.57;2.33;;;19.60;65.40;;;;;;4879667;29;20068;-74
2022/08/15 04:20:01;;;;;;;6.43;2.47;;;19.50;65.80;;;;;;4879378;29;20247;-74
2022/08/15 04:22:34;;;;;;;3.28;2.00;;;19.40;66.10;;;;;;4879603;29;20168;-74
2022/08/15 04:25:02;;;;;;;2.80;2.15;;;19.40;66.20;;;;;;4879568;29;20124;-74
2022/08/15 04:27:28;;;;;;;3.20;1.98;;;19.40;66.00;;;;;;4878290;29;20070;-73
2022/08/15 04:29:53;;;;;;;3.55;1.80;;;19.40;66.00;;;;;;4878261;29;20093;-74
2022/08/15 04:32:23;;;;;;;3.05;1.52;;;19.40;65.90;;;;;;4879189;29;20036;-73
2022/08/15 04:34:49;;;;;;;7.00;2.40;;;19.30;66.30;;;;;;4878478;29;20453;-73
2022/08/15 04:37:14;;;;;;;4.35;2.05;;;19.40;66.30;;;;;;4877637;29;20120;-73
2022/08/15 04:39:40;;;;;;;7.35;2.00;;;19.30;66.70;;;;;;4879241;29;20037;-73
2022/08/15 04:42:06;;;;;;;3.63;2.20;;;19.30;66.60;;;;;;4879145;29;20067;-75
2022/08/15 04:44:32;;;;;;;2.15;1.77;;;19.30;67.00;;;;;;4879508;29;20423;-73
2022/08/15 04:46:58;;;;;;;5.55;2.28;;;19.30;66.90;;;;;;4879194;29;20029;-74
2022/08/15 04:49:23;;;;;;;3.22;2.03;;;19.30;66.80;;;;;;4879197;29;20041;-74
2022/08/15 04:51:49;;;;;;;4.85;2.00;;;19.30;66.40;;;;;;4879167;29;20029;-73
2022/08/15 04:54:16;;;;;;;2.95;2.10;;;19.20;67.00;;;;;;4879080;29;20021;-74
2022/08/15 04:56:42;;;;;;;3.40;1.88;;;19.10;67.20;;;;;;4879230;29;20033;-73
2022/08/15 04:59:08;;;;;;;5.75;2.13;;;19.10;66.80;;;;;;4877865;29;20021;-73
2022/08/15 05:01:33;;;;;;;6.63;2.10;;;19.10;67.20;;;;;;4877853;29;20051;-73
2022/08/15 05:03:59;;;;;;;2.05;1.80;;;19.20;67.20;;;;;;4877884;29;20021;-73
2022/08/15 05:06:25;;;;;;;3.58;2.05;;;19.10;67.70;;;;;;4879103;29;20088;-73
2022/08/15 05:08:50;;;;;;;4.75;2.10;;;19.00;67.90;;;;;;4879063;29;20029;-73
2022/08/15 05:11:18;;;;;;;5.43;2.13;;;19.00;68.10;;;;;;4879337;29;20080;-73
2022/08/15 05:13:44;;;;;;;2.83;2.10;;;19.00;67.50;;;;;;4883868;29;20053;-74
2022/08/15 05:16:10;;;;;;;3.92;1.77;;;19.00;67.50;;;;;;4878972;29;20124;-74
2022/08/15 05:18:38;;;;;;;3.72;1.88;;;19.00;67.40;;;;;;4878902;29;20124;-73
2022/08/15 05:21:08;;;;;;;3.55;1.85;;;19.00;67.60;;;;;;4878940;29;20025;-78
2022/08/15 05:23:35;;;;;;;7.82;2.35;;;19.10;67.20;;;;;;4877922;29;20411;-78
2022/08/15 05:26:03;;;;;;;2.33;1.88;;;19.20;67.40;;;;;;4877919;29;20036;-79
2022/08/15 05:28:29;;;;;;;6.18;2.47;;;19.30;66.70;;;;;;4877713;29;20472;-77
2022/08/15 05:30:56;;;;;;;4.13;2.42;;;19.30;66.20;;;;;;4877727;29;20029;-78
2022/08/15 05:33:29;;;;;;;6.07;2.65;;;19.30;66.50;;;;;;4878822;29;20484;-79
2022/08/15 05:35:58;;;;;;;21.45;5.13;;;19.40;66.20;;;;;;4877191;29;20080;-79
2022/08/15 05:38:32;;;;;;;4.25;2.28;;;19.60;65.90;;;;;;4877927;29;20025;-77
2022/08/15 05:40:58;;;;;;;7.70;2.35;;;19.70;65.00;;;;;;4878842;29;20029;-80
2022/08/15 05:43:38;;;;;;;3.30;2.15;;;20.00;64.40;;;;;;4878689;29;20028;-78
2022/08/15 05:46:31;;;;;;;3.78;2.10;;;20.20;63.50;;;;;;4878922;29;20170;-79
2022/08/15 05:49:08;;;;;;;4.72;2.20;;;20.30;63.10;;;;;;4871474;29;20033;-79
2022/08/15 05:51:43;;;;;;;5.72;2.50;;;20.70;62.00;;;;;;4883941;29;20154;-78
2022/08/15 05:54:27;;;;;;;3.42;2.25;;;20.90;60.80;;;;;;4882102;29;20052;-79
2022/08/15 05:57:09;;;;;;;2.55;2.08;;;21.30;59.90;;;;;;4881974;29;20192;-79
2022/08/15 05:59:48;;;;;;;2.88;1.50;;;21.50;59.00;;;;;;4882009;29;20055;-80
2022/08/15 06:02:24;;;;;;;2.60;1.85;;;21.70;58.30;;;;;;4884002;29;20040;-78
2022/08/15 06:04:57;;;;;;;4.35;2.30;;;21.80;57.40;;;;;;4887146;29;20390;-77
2022/08/15 06:07:25;;;;;;;3.15;1.83;;;21.90;56.90;;;;;;4886859;29;20037;-77
2022/08/15 06:09:57;;;;;;;2.60;1.52;;;21.80;56.50;;;;;;4895913;29;20025;-78
2022/08/15 06:12:32;;;;;;;1.52;1.20;;;21.50;56.10;;;;;;4888055;29;20112;-78
2022/08/15 06:15:11;;;;;;;7.10;1.42;;;21.50;56.30;;;;;;4881645;29;20063;-78
2022/08/15 06:17:48;;;;;;;4.72;2.95;;;21.60;56.10;;;;;;4880172;29;20404;-78
2022/08/15 06:20:21;;;;;;;1.65;1.52;;;21.70;54.60;;;;;;4881624;29;20472;-78
2022/08/15 06:23:05;;;;;;;2.03;1.30;;;21.80;54.10;;;;;;4881616;29;20100;-78
2022/08/15 06:25:40;;;;;;;1.92;1.20;;;22.10;53.50;;;;;;4881165;29;20612;-77
2022/08/15 06:28:36;;;;;;;1.95;1.05;;;22.20;49.40;;;;;;4881178;29;20036;-78
2022/08/15 06:31:16;;;;;;;3.38;1.30;;;22.10;49.60;;;;;;4879946;29;20136;-77
2022/08/15 06:33:50;;;;;;;2.45;1.10;;;21.70;45.80;;;;;;4881082;29;20055;-78
2022/08/15 06:36:33;;;;;;;1.63;1.10;;;21.50;47.00;;;;;;4881143;29;20056;-78
2022/08/15 06:39:24;;;;;;;1.83;1.35;;;21.40;47.70;;;;;;4881100;29;20040;-77
2022/08/15 06:42:01;;;;;;;1.48;1.05;;;21.40;46.80;;;;;;4880910;29;20025;-77
2022/08/15 06:44:28;;;;;;;2.85;1.08;;;21.30;47.50;;;;;;4880907;29;20376;-77
2022/08/15 06:46:56;;;;;;;2.60;0.98;;;21.20;48.90;;;;;;4880879;29;20029;-77
2022/08/15 06:49:23;;;;;;;3.45;1.50;;;21.20;49.60;;;;;;4879767;29;20057;-77
2022/08/15 06:51:49;;;;;;;2.00;1.25;;;21.20;50.00;;;;;;4879645;29;20517;-77
2022/08/15 06:54:27;;;;;;;1.98;1.23;;;21.30;49.20;;;;;;4880878;29;20107;-77
2022/08/15 06:57:00;;;;;;;1.65;1.27;;;21.40;49.00;;;;;;4880797;29;20097;-78
2022/08/15 06:59:47;;;;;;;2.17;1.10;;;21.60;48.50;;;;;;4879803;29;20036;-77
2022/08/15 07:02:43;;;;;;;5.43;1.38;;;21.70;46.50;;;;;;4880524;29;20026;-77
2022/08/15 07:05:24;;;;;;;2.10;1.50;;;21.60;45.30;;;;;;4880577;29;20104;-77
2022/08/15 07:08:01;;;;;;;1.65;1.10;;;21.60;45.00;;;;;;4878995;29;20403;-77
2022/08/15 07:10:41;;;;;;;4.65;1.40;;;21.50;45.70;;;;;;4880677;29;20032;-77
2022/08/15 07:13:14;;;;;;;2.70;1.70;;;21.50;46.30;;;;;;4880474;29;20026;-77
2022/08/15 07:16:00;;;;;;;2.72;1.50;;;21.60;47.60;;;;;;4880242;29;20025;-77
2022/08/15 07:18:37;;;;;;;2.05;1.67;;;21.70;48.80;;;;;;4880502;29;20029;-77
2022/08/15 07:21:16;;;;;;;3.42;1.50;;;21.70;47.60;;;;;;4881534;29;20017;-82
2022/08/15 07:24:09;;;;;;;4.32;1.35;;;21.70;48.70;;;;;;4881011;29;20073;-81
2022/08/15 07:27:00;;;;;;;2.35;1.20;;;21.60;49.20;;;;;;4881169;29;20089;-82
2022/08/15 07:29:48;;;;;;;2.45;1.33;;;21.70;47.50;;;;;;4870228;29;20064;-82
2022/08/15 07:32:20;;;;;;;1.30;1.13;;;21.80;46.50;;;;;;4880212;29;20025;-81
2022/08/15 07:35:04;;;;;;;2.38;1.55;;;21.80;46.70;;;;;;4880126;29;20032;-81
2022/08/15 07:37:34;;;;;;;3.92;1.63;;;22.00;47.50;;;;;;4879858;29;20045;-83
2022/08/15 07:40:20;;;;;;;1.98;1.30;;;22.10;48.10;;;;;;4880147;29;20035;-81
2022/08/15 07:42:45;;;;;;;;;;;21.90;47.70;;;;;;4879051;29;20036;-84
2022/08/15 07:45:20;;;;;;;2.97;1.50;;;21.90;47.40;;;;;;4878632;29;19908;-84
2022/08/15 07:47:59;;;;;;;2.25;1.20;;;21.90;48.10;;;;;;4879768;29;20037;-82
2022/08/15 07:50:30;;;;;;;3.63;1.42;;;21.90;48.00;;;;;;4878779;29;20400;-82
2022/08/15 07:53:03;;;;;;;2.65;1.40;;;21.80;47.70;;;;;;4881024;29;20056;-82
2022/08/15 07:55:28;;;;;;;2.58;1.30;;;21.90;48.00;;;;;;4880234;29;20060;-83
2022/08/15 07:58:23;;;;;;;2.25;1.63;;;22.10;48.50;;;;;;4879311;29;20070;-80
2022/08/15 08:00:55;;;;;;;2.65;1.48;;;22.20;49.30;;;;;;4878408;29;20045;-83
2022/08/15 08:03:29;;;;;;;2.45;1.33;;;22.10;49.10;;;;;;4879837;29;20021;-73
2022/08/15 08:06:27;;;;;;;4.55;1.60;;;22.10;47.90;;;;;;4879390;29;20029;-75
2022/08/15 08:09:07;;;;;;;2.67;1.40;;;22.40;46.90;;;;;;4879647;29;20558;-74
2022/08/15 08:11:54;;;;;;;2.75;1.40;;;22.40;45.60;;;;;;4879352;29;20486;-78
2022/08/15 08:14:40;;;;;;;3.50;1.20;;;22.30;47.50;;;;;;4880435;29;20033;-79
2022/08/15 08:17:36;;;;;;;4.40;1.60;;;22.60;47.80;;;;;;4879493;29;20123;-75
2022/08/15 08:20:26;;;;;;;2.40;1.80;;;22.50;46.50;;;;;;4869357;29;20065;-79
2022/08/15 08:23:03;;;;;;;2.67;1.58;;;22.40;47.10;;;;;;4876049;29;20045;-74
2022/08/15 08:25:57;;;;;;;1.98;1.50;;;22.50;47.20;;;;;;4878071;29;20025;-78
2022/08/15 08:28:32;;;;;;;2.78;1.67;;;22.50;47.00;;;;;;4877707;29;20021;-79
2022/08/15 08:31:04;;;;;;;2.83;1.67;;;22.50;47.50;;;;;;4877775;29;20036;-78
2022/08/15 08:33:41;;;;;;;3.70;1.80;;;22.70;47.30;;;;;;4877479;29;20205;-79
2022/08/15 08:36:25;;;;;;;3.30;1.63;;;22.90;46.90;;;;;;4877190;29;20060;-80
2022/08/15 08:39:29;;;;;;;3.63;1.70;;;22.90;46.90;;;;;;4877635;29;20028;-76
2022/08/15 08:42:01;;;;;;;3.20;1.48;;;22.80;46.80;;;;;;4878022;29;20025;-76
2022/08/15 08:44:42;;;;;;;4.95;1.70;;;22.80;47.40;;;;;;4879287;29;20037;-78
2022/08/15 08:47:32;;;;;;;2.20;1.48;;;22.90;47.20;;;;;;4879330;29;20373;-77
2022/08/15 08:50:03;;;;;;;3.13;1.83;;;22.90;47.00;;;;;;4878147;29;20104;-78
2022/08/15 08:52:53;;;;;;;5.00;1.75;;;22.90;47.40;;;;;;4878471;29;20033;-78
2022/08/15 08:55:47;;;;;;;1.75;1.42;;;22.90;47.80;;;;;;4879389;29;20029;-77
2022/08/15 08:58:18;;;;;;;5.28;1.98;;;23.00;47.50;;;;;;4879362;29;20402;-76
2022/08/15 09:00:48;;;;;;;3.95;1.73;;;23.10;46.60;;;;;;4878991;29;20048;-77
2022/08/15 09:03:46;;;;;;;2.97;1.60;;;23.10;45.70;;;;;;4879219;29;20041;-77
2022/08/15 09:06:16;;;;;;;3.40;1.63;;;23.20;45.80;;;;;;4878955;29;20059;-76
2022/08/15 09:08:51;;;;;;;2.15;1.95;;;23.30;46.10;;;;;;4879041;29;20096;-78
2022/08/15 09:11:20;;;;;;;;;;;23.40;45.90;;;;;;4878289;29;20392;-77
2022/08/15 09:13:47;;;;;;;2.13;1.70;;;23.30;46.30;;;;;;4879199;29;19955;-77
2022/08/15 09:16:36;;;;;;;4.63;2.00;;;23.50;45.60;;;;;;4882767;29;20061;-77
2022/08/15 09:19:29;;;;;;;3.30;1.92;;;23.70;45.00;;;;;;4879035;29;20025;-78
2022/08/15 09:21:55;;;;;;;2.03;1.80;;;23.80;44.50;;;;;;4878494;29;20033;-79
2022/08/15 09:24:22;;;;;;;1.98;1.65;;;23.80;44.80;;;;;;4882281;29;20039;-77
2022/08/15 09:27:18;;;;;;;3.88;1.70;;;23.80;45.30;;;;;;4882160;29;20494;-77
2022/08/15 09:29:50;;;;;;;4.35;1.60;;;23.90;44.00;;;;;;4882094;29;20077;-77
2022/08/15 09:32:28;;;;;;;1.95;1.65;;;24.00;43.00;;;;;;4881831;29;20021;-77
2022/08/15 09:35:14;;;;;;;2.53;1.98;;;24.10;43.40;;;;;;4882889;29;20489;-77
2022/08/15 09:38:10;;;;;;;5.10;2.13;;;24.30;42.50;;;;;;4883244;29;20099;-78
2022/08/15 09:41:02;;;;;;;3.97;2.30;;;24.30;42.00;;;;;;4882164;29;20025;-77
2022/08/15 09:43:46;;;;;;;3.35;2.20;;;24.60;41.40;;;;;;4856524;29;20559;-77
2022/08/15 09:46:35;;;;;;;2.75;2.13;;;24.70;40.80;;;;;;4884820;29;20072;-76
2022/08/15 09:49:33;;;;;;;3.58;2.00;;;24.80;41.00;;;;;;4880456;29;20032;-77
2022/08/15 09:52:18;;;;;;;4.15;2.13;;;25.00;40.80;;;;;;4880859;29;20025;-75
2022/08/15 09:54:50;;;;;;;4.22;1.95;;;25.20;40.20;;;;;;4881445;29;20383;-75
2022/08/15 09:57:27;;;;;;;3.63;2.30;;;25.40;39.10;;;;;;4881709;29;20044;-79
2022/08/15 10:00:00;;;;;;;3.05;1.95;;;25.50;39.00;;;;;;4881464;29;20039;-80
2022/08/15 10:02:31;;;;;;;3.13;2.00;;;25.60;38.60;;;;;;4880829;29;20033;-78
2022/08/15 10:04:57;;;;;;;4.72;2.30;;;25.70;39.00;;;;;;4881628;29;20021;-77
2022/08/15 10:07:43;;;;;;;5.15;2.58;;;25.60;38.80;;;;;;4881296;29;20075;-76
2022/08/15 10:10:32;;;;;;;4.22;2.60;;;25.50;38.80;;;;;;4881295;29;20520;-75
2022/08/15 10:13:06;;;;;;;2.80;2.45;;;25.20;39.70;;;;;;4881518;29;20036;-77
2022/08/15 10:15:40;;;;;;;2.88;2.10;;;25.20;39.50;;;;;;4881246;29;20121;-75
2022/08/15 10:18:08;;;;;;;3.42;2.10;;;25.30;40.20;;;;;;4881046;29;20056;-76
2022/08/15 10:20:33;;;;;;;4.65;2.28;;;25.60;40.00;;;;;;4880388;29;20129;-80
2022/08/15 10:22:59;;;;;;;3.45;2.45;;;25.90;38.80;;;;;;4880374;29;20069;-75
2022/08/15 10:25:37;;;;;;;4.05;2.42;;;26.10;38.90;;;;;;4879107;29;20037;-76
2022/08/15 10:28:08;;;;;;;3.22;2.30;;;26.30;38.20;;;;;;4880556;29;20032;-76
2022/08/15 10:30:37;;;;;;;5.30;2.33;;;26.50;37.50;;;;;;4881249;29;20025;-75
2022/08/15 10:33:30;;;;;;;3.40;2.20;;;26.90;36.70;;;;;;4879808;29;20120;-75
2022/08/15 10:36:13;;;;;;;4.75;2.20;;;27.40;36.40;;;;;;4879283;29;20053;-75
2022/08/15 10:38:40;;;;;;;2.85;2.05;;;27.90;35.50;;;;;;4879603;29;20029;-75
2022/08/15 10:41:31;;;;;;;2.60;2.00;;;28.10;35.30;;;;;;4880620;29;20029;-74
2022/08/15 10:44:21;;;;;;;2.30;2.10;;;28.00;34.30;;;;;;4880802;29;20480;-75
2022/08/15 10:47:01;;;;;;;3.10;2.17;;;27.80;34.20;;;;;;4879217;29;20381;-76
2022/08/15 10:49:58;;;;;;;2.97;2.20;;;27.90;34.00;;;;;;4879183;29;20029;-76
2022/08/15 10:52:38;;;;;;;2.40;2.20;;;27.50;34.30;;;;;;4872485;29;20033;-78
2022/08/15 10:55:12;;;;;;;4.72;2.05;;;27.30;34.70;;;;;;4879421;29;20025;-76
2022/08/15 10:57:46;;;;;;;4.70;2.00;;;27.10;35.30;;;;;;4880597;29;20052;-75
2022/08/15 11:00:27;;;;;;;4.00;2.35;;;26.90;34.60;;;;;;4879871;29;20123;-77
2022/08/15 11:02:55;;;;;;;2.25;1.75;;;26.70;34.90;;;;;;4880737;29;20145;-79
2022/08/15 11:05:20;;;;;;;3.78;2.50;;;26.60;35.50;;;;;;4879730;29;20477;-77
2022/08/15 11:07:49;;;;;;;4.93;2.30;;;26.40;35.90;;;;;;4879434;29;20036;-76
2022/08/15 11:10:19;;;;;;;4.13;2.15;;;26.30;36.00;;;;;;4878847;29;20120;-80
2022/08/15 11:12:54;;;;;;;2.53;1.85;;;26.30;36.30;;;;;;4878820;29;20057;-76
2022/08/15 11:15:30;;;;;;;2.58;1.60;;;26.30;35.80;;;;;;4879173;29;20056;-79
2022/08/15 11:18:08;;;;;;;3.47;2.13;;;26.60;35.20;;;;;;4879202;29;20492;-79
2022/08/15 11:23:00;;;;;;;3.83;2.20;;;27.50;33.80;;;;;;4903183;23;20187;-79
2022/08/15 11:27:59;;;;;;;2.63;2.40;;;28.70;31.50;;;;;;4896497;29;20052;-75
2022/08/15 11:30:26;;;;;;;2.72;2.30;;;29.20;30.70;;;;;;4897699;29;20092;-76
2022/08/15 11:32:52;;;;;;;3.13;2.20;;;29.50;29.30;;;;;;4898918;29;20027;-79
2022/08/15 11:35:31;;;;;;;3.65;2.58;;;29.40;29.00;;;;;;4897739;29;20033;-79
2022/08/15 11:38:01;;;;;;;4.75;2.28;;;29.00;29.10;;;;;;4897512;29;20041;-77
2022/08/15 11:40:38;;;;;;;4.03;2.45;;;28.50;29.30;;;;;;4898907;29;20035;-74
2022/08/15 11:43:06;;;;;;;5.35;2.40;;;28.10;30.30;;;;;;4898826;29;20456;-75
2022/08/15 11:45:46;;;;;;;5.25;2.47;;;27.70;30.30;;;;;;4897343;29;20035;-77
2022/08/15 11:48:17;;;;;;;5.18;2.97;;;27.30;31.30;;;;;;4897738;29;20028;-78
2022/08/15 11:51:00;;;;;;;3.97;2.67;;;27.10;32.10;;;;;;4897339;29;20029;-77
2022/08/15 11:53:32;;;;;;;7.00;2.72;;;26.70;33.60;;;;;;4897138;29;20029;-78
2022/08/15 11:55:58;;;;;;;6.63;2.90;;;26.20;35.90;;;;;;4896444;29;20033;-77
2022/08/15 11:58:34;;;;;;;4.80;2.38;;;26.40;35.90;;;;;;4896726;29;20588;-76
2022/08/15 12:01:27;;;;;;;4.35;2.42;;;27.10;35.10;;;;;;4898397;29;20036;-79
2022/08/15 12:04:02;;;;;;;5.85;2.45;;;27.60;31.10;;;;;;4897087;29;20028;-79
2022/08/15 12:06:37;;;;;;;4.75;2.53;;;27.90;30.80;;;;;;4896887;29;20429;-76
2022/08/15 12:09:19;;;;;;;3.80;2.30;;;28.00;31.10;;;;;;4903566;29;20036;-80
2022/08/15 12:11:49;;;;;;;4.13;2.42;;;28.20;30.40;;;;;;4898365;29;20036;-80
2022/08/15 12:14:24;;;;;;;5.03;2.45;;;28.20;29.60;;;;;;4898176;29;20028;-80
2022/08/15 12:16:54;;;;;;;8.48;3.08;;;27.80;29.90;;;;;;4898172;29;20033;-80
2022/08/15 12:19:34;;;;;;;5.75;2.53;;;27.20;32.20;;;;;;4898039;29;20029;-79
2022/08/15 12:22:05;;;;;;;5.40;2.40;;;26.90;33.30;;;;;;4897015;29;20084;-80
2022/08/15 12:24:34;;;;;;;3.58;2.63;;;26.10;35.80;;;;;;4898243;29;20029;-79
2022/08/15 12:27:01;;;;;;;2.72;2.22;;;25.90;35.80;;;;;;4897926;29;20407;-79
2022/08/15 12:40:12;;;;;;;4.07;2.15;;;27.00;32.70;;;;;;5016269;23;20037;-78
2022/08/15 12:42:37;;;;;;;4.43;2.60;;;27.60;32.40;;;;;;4878483;29;20033;-78
2022/08/15 12:45:07;;;;;;;6.13;2.67;;;28.10;32.00;;;;;;4877862;29;20032;-79
2022/08/15 12:47:33;;;;;;;5.85;2.72;;;28.30;31.30;;;;;;4877977;29;20033;-78
2022/08/15 12:50:03;;;;;;;5.50;2.78;;;28.60;31.00;;;;;;4877641;29;20472;-78
2022/08/15 12:52:30;;;;;;;5.60;2.80;;;28.70;30.90;;;;;;4877773;29;20039;-78
2022/08/15 12:54:57;;;;;;;3.55;2.28;;;28.40;31.90;;;;;;4877660;29;20441;-78
2022/08/15 12:57:29;;;;;;;3.63;2.67;;;28.50;31.80;;;;;;4879066;29;20128;-78
2022/08/15 12:59:55;;;;;;;1.92;1.70;;;29.00;28.60;;;;;;4865776;29;20025;-78
2022/08/15 13:02:21;;;;;;;2.35;1.70;;;29.20;25.20;;;;;;4881797;29;20041;-80
2022/08/15 13:04:52;;;;;;;2.28;1.67;;;29.20;24.10;;;;;;4881709;29;20076;-79
2022/08/15 13:07:19;;;;;;;3.75;1.80;;;29.50;23.50;;;;;;4881816;29;20029;-79
2022/08/15 13:09:45;;;;;;;2.85;2.00;;;29.20;24.20;;;;;;4881552;29;20025;-79
2022/08/15 13:12:12;;;;;;;4.78;2.10;;;29.20;24.70;;;;;;4866391;29;20066;-79
2022/08/15 13:15:03;;;;;;;2.63;1.83;;;28.90;26.50;;;;;;4882572;29;20032;-79
2022/08/15 13:17:28;;;;;;;2.08;1.50;;;29.40;25.60;;;;;;4912015;23;20519;-76
2022/08/15 13:25:22;;;;;;;4.68;2.08;;;30.60;22.80;;;;;;4882890;29;20048;-78
2022/08/15 13:27:49;;;;;;;2.15;1.70;;;30.30;24.20;;;;;;4881594;29;20128;-78
2022/08/15 13:30:16;;;;;;;6.55;1.98;;;30.30;24.50;;;;;;4880959;29;20029;-77
2022/08/15 13:32:42;;;;;;;3.35;2.20;;;30.20;25.70;;;;;;4881267;29;20043;-78
2022/08/15 13:35:11;;;;;;;4.95;2.63;;;30.60;25.80;;;;;;4881050;29;20479;-80
2022/08/15 13:37:38;;;;;;;1.88;1.67;;;30.70;25.00;;;;;;4881062;29;20037;-79
2022/08/15 13:40:06;;;;;;;4.43;2.00;;;30.60;25.00;;;;;;4881276;29;20031;-78
2022/08/15 13:42:33;;;;;;;3.28;1.90;;;30.50;24.80;;;;;;4881533;29;20123;-80